Terminal Aerodrome Forecast
Issued by NWS

Home | Current Version | Previous Version | Text Only | Print | Product List | Glossary On
Versions: 1 2 3 4 5 6 7 8 9 10 11 12 13 14 15 16 17
290
FTUS43 KMQT 300534
TAFSAW
TAF
KSAW 300534Z 3006/0106 03008KT P6SM BKN200
     FM301600 05012KT P6SM BKN070
     FM301800 06013G20KT P6SM OVC050
     FM302100 06012KT P6SM -SHRA OVC035
     FM010000 05008KT P6SM -RA OVC015
     FM010500 06009KT 5SM -RA BR OVC008=

USA.gov is the U.S. government's official web portal to all federal, state and local government web resources and services.